createdAt,value
2022-11-12T00:01:17.905Z,103080.25
2022-11-12T00:06:59.635Z,103091.44
2022-11-12T00:12:41.466Z,103094.09
2022-11-12T00:18:24.678Z,103094.09
2022-11-12T00:24:06.993Z,103059.88
2022-11-12T00:29:48.517Z,103083.50
2022-11-12T00:35:32.015Z,103087.81
2022-11-12T00:41:13.503Z,103080.69
2022-11-12T00:46:55.082Z,103089.34
2022-11-12T00:52:38.289Z,103078.06
2022-11-12T00:58:19.927Z,103086.69
2022-11-12T01:04:01.952Z,103083.22
2022-11-12T01:09:45.081Z,103086.28
2022-11-12T01:15:26.683Z,103072.66
2022-11-12T01:21:09.724Z,103078.13
2022-11-12T01:26:52.764Z,103085.69
2022-11-12T01:32:36.802Z,103089.44
2022-11-12T01:38:18.635Z,103085.13
2022-11-12T01:44:16.689Z,103100.28
2022-11-12T01:50:01.342Z,103089.19
2022-11-12T01:55:43.067Z,103086.50
2022-11-12T02:01:26.392Z,103097.06
2022-11-12T02:07:08.774Z,103106.00
2022-11-12T02:13:08.790Z,103094.78
2022-11-12T02:18:51.921Z,103075.69
2022-11-12T02:24:36.896Z,103094.81
2022-11-12T02:30:19.008Z,103072.38
2022-11-12T02:36:00.739Z,103075.09
2022-11-12T02:41:44.064Z,103083.03
2022-11-12T02:47:25.658Z,103079.53
2022-11-12T02:53:07.528Z,103061.47
2022-11-12T02:58:50.778Z,103069.28
2022-11-12T03:04:32.315Z,103059.91
2022-11-12T03:10:13.934Z,103052.84
2022-11-12T03:16:01.789Z,103056.56
2022-11-12T03:21:43.376Z,103049.63
2022-11-12T03:27:25.368Z,103048.50
2022-11-12T03:33:09.943Z,103061.72
2022-11-12T03:38:51.745Z,103067.41
2022-11-12T03:44:33.518Z,103055.22
2022-11-12T03:50:18.116Z,103070.03
2022-11-12T03:55:59.626Z,103066.41
2022-11-12T04:01:41.214Z,103074.97
2022-11-12T04:07:42.017Z,103080.47
2022-11-12T04:13:29.878Z,103075.88
2022-11-12T04:19:30.808Z,103070.69
2022-11-12T04:25:31.373Z,103068.03
2022-11-12T04:31:12.874Z,103069.50
2022-11-12T04:36:54.529Z,103066.06
2022-11-12T04:42:54.723Z,103063.81
2022-11-12T04:48:36.454Z,103070.16
2022-11-12T04:54:18.212Z,103084.06
2022-11-12T05:00:01.366Z,103076.50
2022-11-12T05:05:43.313Z,103070.16
2022-11-12T05:11:25.138Z,103080.59
2022-11-12T05:17:08.112Z,103074.81
2022-11-12T05:23:05.014Z,103071.19
2022-11-12T05:28:48.360Z,103073.00
2022-11-12T05:34:31.456Z,103056.41
2022-11-12T05:40:14.163Z,103057.19
2022-11-12T05:45:55.694Z,103047.22
2022-11-12T05:51:38.865Z,103056.91
2022-11-12T05:57:20.405Z,103060.91
2022-11-12T06:03:01.967Z,103050.03
2022-11-12T06:08:45.118Z,103066.75
2022-11-12T06:14:26.905Z,103061.88
2022-11-12T06:20:09.766Z,103055.06
2022-11-12T06:25:52.852Z,103058.50
2022-11-12T06:31:34.777Z,103051.78
2022-11-12T06:37:16.596Z,103047.13
2022-11-12T06:43:00.245Z,103067.75
2022-11-12T06:48:42.155Z,103086.66
2022-11-12T06:54:23.815Z,103071.50
2022-11-12T07:00:09.563Z,103088.53
2022-11-12T07:05:51.385Z,103096.47
2022-11-12T07:11:33.251Z,103086.38
2022-11-12T07:17:16.351Z,103093.84
2022-11-12T07:23:01.202Z,103117.75
2022-11-12T07:28:43.147Z,103119.41
2022-11-12T07:34:26.367Z,103128.09
2022-11-12T07:40:08.936Z,103083.56
2022-11-12T07:45:50.908Z,103114.69
2022-11-12T07:51:33.969Z,103123.31
2022-11-12T07:57:15.541Z,103130.63
2022-11-12T08:03:00.619Z,103124.59
2022-11-12T08:08:43.850Z,103123.78
2022-11-12T08:14:26.004Z,103131.06
2022-11-12T08:20:08.993Z,103122.56
2022-11-12T08:25:52.086Z,103116.50
2022-11-12T08:31:33.839Z,103112.00
2022-11-12T08:37:15.429Z,103112.88
2022-11-12T08:43:01.741Z,103114.66
2022-11-12T08:48:43.639Z,103115.72
2022-11-12T08:54:25.765Z,103118.88
2022-11-12T09:00:10.001Z,103125.34
2022-11-12T09:05:53.209Z,103122.75
2022-11-12T09:11:34.635Z,103131.34
2022-11-12T09:17:17.800Z,103123.75
2022-11-12T09:23:00.313Z,103118.50
2022-11-12T09:28:43.018Z,103130.94
2022-11-12T09:34:26.414Z,103112.44
2022-11-12T09:40:08.918Z,103123.41
2022-11-12T09:46:06.892Z,103134.19
2022-11-12T09:51:57.369Z,103131.63
2022-11-12T09:57:38.916Z,103126.19
2022-11-12T10:03:30.441Z,103124.81
2022-11-12T10:09:17.902Z,103118.16
2022-11-12T10:15:57.460Z,103122.56
2022-11-12T10:21:45.824Z,103132.22
2022-11-12T10:27:35.974Z,103127.97
2022-11-12T10:33:17.549Z,103118.50
2022-11-12T10:38:59.716Z,103117.81
2022-11-12T10:44:43.531Z,103131.09
2022-11-12T10:50:29.248Z,103121.66
2022-11-12T10:56:25.822Z,103117.44
2022-11-12T11:02:18.956Z,103109.94
2022-11-12T11:08:01.627Z,103107.50
2022-11-12T11:13:43.613Z,103105.06
2022-11-12T11:19:31.961Z,103113.94
2022-11-12T11:25:21.078Z,103119.31
2022-11-12T11:31:08.215Z,103115.91
2022-11-12T11:37:00.390Z,103115.03
2022-11-12T11:42:58.040Z,103114.25
2022-11-12T11:48:52.874Z,103094.19
2022-11-12T11:54:49.941Z,103083.66
2022-11-12T12:00:38.037Z,103080.16
2022-11-12T12:06:25.756Z,103063.56
2022-11-12T12:12:17.409Z,103069.69
2022-11-12T12:18:05.134Z,103055.66
2022-11-12T12:23:49.907Z,103054.78
2022-11-12T12:29:36.032Z,103049.53
2022-11-12T12:35:22.901Z,103046.00
2022-11-12T12:41:07.925Z,103038.13
2022-11-12T12:46:55.358Z,103040.72
2022-11-12T12:53:01.043Z,103012.44
2022-11-12T12:58:44.625Z,102993.59
2022-11-12T13:04:53.495Z,102980.78
2022-11-12T13:10:47.934Z,102967.69
2022-11-12T13:16:58.447Z,102973.00
2022-11-12T13:22:53.456Z,102970.69
2022-11-12T13:28:35.269Z,102957.72
2022-11-12T13:34:22.908Z,102947.63
2022-11-12T13:40:11.405Z,102935.09
2022-11-12T13:45:55.171Z,102931.25
2022-11-12T13:51:40.765Z,102957.91
2022-11-12T13:57:29.991Z,102962.56
2022-11-12T14:03:17.299Z,102949.53
2022-11-12T14:09:24.909Z,102947.94
2022-11-12T14:15:21.482Z,102954.16
2022-11-12T14:21:06.686Z,102948.94
2022-11-12T14:26:48.551Z,102947.19
2022-11-12T14:32:38.016Z,102950.72
2022-11-12T14:38:21.345Z,102946.38
2022-11-12T14:44:13.302Z,102940.22
2022-11-12T14:49:56.839Z,102936.66
2022-11-12T14:55:39.277Z,102950.56
2022-11-12T15:02:03.888Z,102943.59
2022-11-12T15:07:30.257Z,102940.03
2022-11-12T15:13:14.272Z,102945.28
2022-11-12T15:19:06.879Z,102935.66
2022-11-12T15:24:50.057Z,102937.38
2022-11-12T15:30:33.234Z,102938.22
2022-11-12T15:36:17.038Z,102930.28
2022-11-12T15:42:02.599Z,102932.84
2022-11-12T15:47:44.507Z,102934.59
2022-11-12T15:53:26.570Z,102938.06
2022-11-12T15:59:12.110Z,102935.44
2022-11-12T16:04:53.670Z,102924.81
2022-11-12T16:10:36.367Z,102940.50
2022-11-12T16:16:19.385Z,102927.22
2022-11-12T16:22:01.353Z,102927.25
2022-11-12T16:27:43.025Z,102925.41
2022-11-12T16:33:26.595Z,102925.47
2022-11-12T16:39:15.255Z,102918.28
2022-11-12T16:44:56.763Z,102920.06
2022-11-12T16:50:40.167Z,102915.81
2022-11-12T16:56:23.086Z,102903.47
2022-11-12T17:02:05.044Z,102911.31
2022-11-12T17:07:48.091Z,102899.88
2022-11-12T17:13:29.976Z,102894.69
2022-11-12T17:19:12.265Z,102898.25
2022-11-12T17:24:55.142Z,102890.25
2022-11-12T17:30:37.037Z,102904.38
2022-11-12T17:36:21.099Z,102902.69
2022-11-12T17:42:04.066Z,102913.19
2022-11-12T17:47:45.841Z,102906.13
2022-11-12T17:53:27.923Z,102904.38
2022-11-12T17:59:11.121Z,102913.94
2022-11-12T18:04:52.850Z,102906.06
2022-11-12T18:10:34.331Z,102912.75
2022-11-12T18:16:19.630Z,102900.53
2022-11-12T18:22:02.289Z,102903.19
2022-11-12T18:27:44.562Z,102899.72
2022-11-12T18:33:28.248Z,102894.47
2022-11-12T18:39:09.986Z,102899.63
2022-11-12T18:44:51.920Z,102900.34
2022-11-12T18:50:35.218Z,102896.53
2022-11-12T18:56:18.457Z,102892.34
2022-11-12T19:02:00.382Z,102888.84
2022-11-12T19:07:43.544Z,102889.88
2022-11-12T19:13:25.534Z,102896.94
2022-11-12T19:19:07.542Z,102890.84
2022-11-12T19:24:50.643Z,102890.81
2022-11-12T19:30:32.442Z,102894.31
2022-11-12T19:36:15.770Z,102890.81
2022-11-12T19:41:58.715Z,102880.25
2022-11-12T19:47:40.516Z,102884.59
2022-11-12T19:53:22.074Z,102878.47
2022-11-12T19:59:05.411Z,102878.47
2022-11-12T20:04:47.209Z,102869.69
2022-11-12T20:10:29.004Z,102862.66
2022-11-12T20:16:14.742Z,102867.03
2022-11-12T20:21:56.578Z,102867.00
2022-11-12T20:27:38.362Z,102859.13
2022-11-12T20:33:21.493Z,102873.06
2022-11-12T20:39:03.291Z,102870.19
2022-11-12T20:44:45.042Z,102868.50
2022-11-12T20:50:28.066Z,102861.50
2022-11-12T20:56:11.432Z,102865.00
2022-11-12T21:01:57.545Z,102868.13
2022-11-12T21:07:40.429Z,102876.78
2022-11-12T21:13:23.529Z,102870.75
2022-11-12T21:19:05.779Z,102868.06
2022-11-12T21:24:49.367Z,102861.13
2022-11-12T21:30:30.947Z,102858.13
2022-11-12T21:36:16.384Z,102855.69
2022-11-12T21:41:59.693Z,102866.97
2022-11-12T21:47:41.355Z,102858.16
2022-11-12T21:53:23.059Z,102853.91
2022-11-12T21:59:06.719Z,102850.84
2022-11-12T22:04:48.508Z,102849.34
2022-11-12T22:10:29.903Z,102849.28
2022-11-12T22:16:16.822Z,102850.09
2022-11-12T22:21:58.757Z,102850.06
2022-11-12T22:27:40.516Z,102849.13
2022-11-12T22:33:23.599Z,102838.38
2022-11-12T22:39:05.844Z,102837.75
2022-11-12T22:44:47.681Z,102843.72
2022-11-12T22:50:30.999Z,102823.28
2022-11-12T22:56:14.356Z,102822.56
2022-11-12T23:01:56.265Z,102813.09
2022-11-12T23:07:39.350Z,102806.47
2022-11-12T23:13:21.270Z,102806.88
2022-11-12T23:19:03.255Z,102797.47
2022-11-12T23:24:46.595Z,102798.56
2022-11-12T23:30:28.729Z,102792.63
2022-11-12T23:36:11.703Z,102798.25
2022-11-12T23:41:54.455Z,102794.97
2022-11-12T23:47:36.337Z,102796.75
2022-11-12T23:53:18.447Z,102786.38
2022-11-12T23:59:01.552Z,102781.81
